Time;durP1;ratioP1;P1;durP2;ratioP2;P2;SDS_P1;SDS_P2;PMS_P1;PMS_P2;Temp;Humidity;BMP_temperature;BMP_pressure;BME280_temperature;BME280_humidity;BME280_pressure;Samples;Min_cycle;Max_cycle;Signal;HPM_P1;HPM_P2
2023/03/29 00:01:50;;;;;;;2.00;1.90;;;4.10;74.00;;;;;;5072262;28;20021;-58
2023/03/29 00:04:18;;;;;;;2.17;2.00;;;4.10;74.20;;;;;;5068880;28;20083;-59
2023/03/29 00:06:46;;;;;;;2.83;2.28;;;4.10;74.30;;;;;;5072120;28;20024;-65
2023/03/29 00:09:17;;;;;;;2.00;1.90;;;4.10;74.50;;;;;;5070334;28;20036;-63
2023/03/29 00:11:43;;;;;;;2.25;2.13;;;4.10;74.80;;;;;;5072537;28;20036;-59
2023/03/29 00:14:09;;;;;;;2.42;2.28;;;4.10;75.20;;;;;;5052507;28;20028;-59
2023/03/29 00:16:35;;;;;;;2.65;2.28;;;4.20;74.30;;;;;;5059853;28;20488;-59
2023/03/29 00:19:01;;;;;;;3.53;2.63;;;4.10;74.20;;;;;;5071548;28;20036;-60
2023/03/29 00:21:27;;;;;;;2.78;2.40;;;4.10;74.30;;;;;;5064272;28;20036;-59
2023/03/29 00:23:52;;;;;;;3.63;2.55;;;4.10;74.30;;;;;;5068543;28;20068;-58
2023/03/29 00:26:18;;;;;;;2.47;2.28;;;4.10;74.30;;;;;;5062231;28;20025;-59
2023/03/29 00:28:43;;;;;;;2.50;2.30;;;4.10;74.50;;;;;;5074009;28;20075;-59
2023/03/29 00:31:12;;;;;;;2.58;2.38;;;4.00;74.60;;;;;;5072620;28;20031;-59
2023/03/29 00:33:39;;;;;;;2.95;2.50;;;4.00;74.70;;;;;;5062750;28;20087;-58
2023/03/29 00:36:06;;;;;;;2.35;2.15;;;4.00;74.60;;;;;;5071352;28;20060;-58
2023/03/29 00:38:32;;;;;;;2.85;2.60;;;4.00;74.60;;;;;;5070827;28;20029;-58
2023/03/29 00:40:58;;;;;;;2.80;2.60;;;4.00;74.90;;;;;;5071761;28;20090;-63
2023/03/29 00:43:24;;;;;;;3.58;2.55;;;4.00;75.00;;;;;;5053324;28;20418;-63
2023/03/29 00:45:50;;;;;;;2.92;2.67;;;3.90;74.90;;;;;;5071888;28;20074;-63
2023/03/29 00:48:26;;;;;;;3.03;2.72;;;3.90;75.10;;;;;;5067818;28;20037;-63
2023/03/29 00:51:05;;;;;;;3.10;2.80;;;3.80;75.20;;;;;;5063374;28;20047;-62
2023/03/29 00:53:34;;;;;;;2.60;2.40;;;3.90;75.60;;;;;;5075584;28;20048;-64
2023/03/29 00:56:03;;;;;;;2.17;2.08;;;3.80;75.70;;;;;;5076636;28;20054;-60
2023/03/29 00:58:50;;;;;;;2.50;2.30;;;3.80;75.50;;;;;;5075080;28;20129;-59
2023/03/29 01:02:05;;;;;;;2.45;2.25;;;3.80;75.50;;;;;;5075124;28;20036;-60
2023/03/29 01:04:44;;;;;;;2.60;2.40;;;3.90;75.30;;;;;;5065972;28;20032;-60
2023/03/29 01:07:17;;;;;;;1.88;1.77;;;3.90;74.90;;;;;;5068007;28;20393;-60
2023/03/29 01:09:47;;;;;;;2.25;2.15;;;3.90;75.10;;;;;;5074916;28;20102;-59
2023/03/29 01:12:21;;;;;;;2.40;2.20;;;3.90;75.10;;;;;;5074011;28;20028;-60
2023/03/29 01:14:58;;;;;;;2.60;2.40;;;3.90;75.10;;;;;;5075974;28;20029;-59
2023/03/29 01:17:25;;;;;;;2.53;2.33;;;3.90;75.00;;;;;;5074772;28;20044;-61
2023/03/29 01:20:14;;;;;;;2.78;2.50;;;3.90;75.10;;;;;;5074681;28;20052;-60
2023/03/29 01:23:27;;;;;;;2.90;2.70;;;4.00;75.30;;;;;;5027567;28;20088;-60
2023/03/29 01:25:59;;;;;;;2.55;2.35;;;3.90;74.90;;;;;;5054642;28;20384;-60
2023/03/29 01:28:40;;;;;;;2.67;2.47;;;3.90;75.00;;;;;;5074292;28;20482;-61
2023/03/29 01:31:19;;;;;;;3.60;2.85;;;4.00;75.10;;;;;;5074710;28;20028;-59
2023/03/29 01:33:50;;;;;;;2.80;2.60;;;4.00;75.20;;;;;;5068870;28;20048;-61
2023/03/29 01:36:40;;;;;;;3.58;3.00;;;4.00;75.30;;;;;;5074285;28;20120;-60
2023/03/29 01:39:06;;;;;;;3.00;2.80;;;4.00;75.10;;;;;;5073723;28;20071;-58
2023/03/29 01:41:45;;;;;;;2.63;2.42;;;3.90;75.10;;;;;;5074491;28;20069;-59
2023/03/29 01:44:23;;;;;;;3.10;2.75;;;3.90;74.90;;;;;;5071977;28;20028;-59
2023/03/29 01:47:01;;;;;;;2.83;2.63;;;3.90;75.20;;;;;;5065984;28;20083;-61
2023/03/29 01:49:41;;;;;;;2.60;2.40;;;3.90;74.90;;;;;;5067116;28;20491;-61
2023/03/29 01:52:27;;;;;;;2.88;2.60;;;3.80;74.80;;;;;;5066200;28;20036;-62
2023/03/29 01:54:59;;;;;;;2.70;2.50;;;3.90;74.90;;;;;;5059083;28;20029;-64
2023/03/29 01:57:25;;;;;;;3.15;2.67;;;3.90;75.00;;;;;;5068150;28;20491;-59
2023/03/29 01:59:54;;;;;;;2.80;2.60;;;3.90;75.10;;;;;;5074583;28;20031;-60
2023/03/29 02:02:22;;;;;;;3.65;3.17;;;3.90;75.80;;;;;;5073127;28;20031;-63
2023/03/29 02:04:52;;;;;;;3.10;2.78;;;3.90;75.20;;;;;;5073877;28;20024;-63
2023/03/29 02:07:21;;;;;;;3.30;3.03;;;3.90;75.30;;;;;;5062236;28;20033;-62
2023/03/29 02:09:51;;;;;;;4.15;2.90;;;3.90;75.10;;;;;;5080516;28;20032;-62
2023/03/29 02:12:17;;;;;;;3.45;2.80;;;3.90;75.20;;;;;;5076456;28;20525;-63
2023/03/29 02:14:42;;;;;;;3.15;2.88;;;3.80;75.40;;;;;;5073703;28;20032;-63
2023/03/29 02:17:15;;;;;;;3.17;2.88;;;3.80;75.30;;;;;;5073697;28;20055;-63
2023/03/29 02:19:42;;;;;;;3.10;2.70;;;3.80;75.00;;;;;;5073887;28;20460;-63
2023/03/29 02:22:11;;;;;;;3.13;2.83;;;3.70;74.90;;;;;;5073439;28;20028;-62
2023/03/29 02:24:41;;;;;;;2.88;2.65;;;3.70;74.80;;;;;;5073518;28;20052;-63
2023/03/29 02:27:06;;;;;;;3.00;2.70;;;3.70;74.70;;;;;;5065609;28;20101;-61
2023/03/29 02:29:32;;;;;;;2.60;2.40;;;3.70;74.60;;;;;;5072738;28;20041;-63
2023/03/29 02:32:05;;;;;;;2.85;2.58;;;3.70;74.40;;;;;;5073210;28;20037;-63
2023/03/29 02:34:46;;;;;;;2.50;2.30;;;3.70;74.10;;;;;;5072075;28;20077;-61
2023/03/29 02:37:17;;;;;;;4.00;2.83;;;3.70;74.00;;;;;;5060235;28;20459;-61
2023/03/29 02:39:46;;;;;;;2.97;2.70;;;3.80;74.20;;;;;;5069736;28;20071;-61
2023/03/29 02:42:15;;;;;;;3.10;2.85;;;3.80;74.00;;;;;;5076787;28;20127;-61
2023/03/29 02:44:44;;;;;;;3.22;2.90;;;3.80;73.90;;;;;;5075682;28;20048;-60
2023/03/29 02:47:23;;;;;;;3.30;3.00;;;3.80;73.90;;;;;;5077491;28;20351;-60
2023/03/29 02:49:49;;;;;;;3.13;2.83;;;3.80;73.90;;;;;;5071460;28;20115;-61
2023/03/29 02:52:21;;;;;;;3.03;2.70;;;3.80;73.80;;;;;;5073848;28;20067;-58
2023/03/29 02:54:49;;;;;;;2.92;2.72;;;3.70;73.80;;;;;;5075234;28;20025;-58
2023/03/29 02:57:14;;;;;;;3.20;2.90;;;3.70;73.80;;;;;;5071259;28;20116;-57
2023/03/29 02:59:42;;;;;;;3.22;2.92;;;3.70;73.80;;;;;;5072609;28;20146;-57
2023/03/29 03:02:10;;;;;;;2.95;2.75;;;3.70;73.90;;;;;;5064186;28;20024;-58
2023/03/29 03:04:36;;;;;;;3.65;3.22;;;3.70;73.70;;;;;;5068010;28;20063;-57
2023/03/29 03:07:05;;;;;;;2.83;2.63;;;3.70;73.50;;;;;;5068210;28;20387;-58
2023/03/29 03:09:31;;;;;;;2.80;2.53;;;3.70;73.60;;;;;;5054319;28;20127;-57
2023/03/29 03:11:56;;;;;;;3.00;2.70;;;3.70;73.70;;;;;;5072674;28;20150;-58
2023/03/29 03:14:22;;;;;;;2.92;2.60;;;3.70;73.60;;;;;;5073193;28;20044;-59
2023/03/29 03:16:48;;;;;;;2.88;2.67;;;3.70;73.60;;;;;;5072654;28;20056;-62
2023/03/29 03:19:14;;;;;;;2.95;2.75;;;3.80;73.40;;;;;;5070888;28;20025;-61
2023/03/29 03:21:40;;;;;;;3.50;2.85;;;3.80;73.10;;;;;;5072712;28;20031;-60
2023/03/29 03:24:06;;;;;;;3.10;2.80;;;3.80;73.10;;;;;;5070074;28;20360;-60
2023/03/29 03:26:32;;;;;;;3.15;2.72;;;3.80;72.80;;;;;;5063334;28;20031;-61
2023/03/29 03:28:58;;;;;;;2.92;2.63;;;3.80;72.80;;;;;;5072355;28;20040;-60
2023/03/29 03:31:24;;;;;;;3.58;2.75;;;3.80;73.10;;;;;;5071448;28;20040;-58
2023/03/29 03:33:49;;;;;;;3.20;2.90;;;3.80;73.00;;;;;;5067087;28;20039;-60
2023/03/29 03:36:15;;;;;;;2.70;2.50;;;3.80;72.90;;;;;;5072089;28;20024;-58
2023/03/29 03:38:42;;;;;;;2.88;2.67;;;3.80;72.60;;;;;;5070939;28;20020;-59
2023/03/29 03:41:08;;;;;;;2.70;2.50;;;3.80;72.60;;;;;;5071205;28;20387;-58
2023/03/29 03:43:34;;;;;;;4.25;2.55;;;3.80;72.20;;;;;;5069864;28;20028;-59
2023/03/29 03:46:00;;;;;;;2.70;2.50;;;3.80;72.20;;;;;;5068403;28;20028;-60
2023/03/29 03:48:26;;;;;;;2.88;2.53;;;3.80;72.10;;;;;;5071855;28;20039;-59
2023/03/29 03:50:54;;;;;;;2.70;2.50;;;3.80;72.10;;;;;;5072189;28;20028;-59
2023/03/29 03:53:20;;;;;;;2.97;2.50;;;3.80;72.00;;;;;;5074509;28;20042;-57
2023/03/29 03:55:48;;;;;;;2.80;2.60;;;3.80;72.00;;;;;;5079360;28;20036;-60
2023/03/29 03:58:14;;;;;;;2.55;2.35;;;3.80;71.80;;;;;;5071733;28;20028;-59
2023/03/29 04:00:40;;;;;;;2.63;2.42;;;3.80;71.90;;;;;;5050943;28;20474;-59
2023/03/29 04:03:06;;;;;;;2.70;2.50;;;3.80;72.00;;;;;;5073029;28;20094;-59
2023/03/29 04:05:31;;;;;;;3.03;2.75;;;3.80;72.00;;;;;;5071424;28;20033;-59
2023/03/29 04:07:57;;;;;;;2.70;2.50;;;3.80;71.90;;;;;;5071804;28;20045;-59
2023/03/29 04:10:23;;;;;;;3.00;2.67;;;3.80;71.90;;;;;;5071416;28;20479;-60
2023/03/29 04:12:49;;;;;;;2.55;2.35;;;3.80;71.80;;;;;;5073930;28;20063;-63
2023/03/29 04:15:16;;;;;;;3.10;2.80;;;3.90;71.90;;;;;;5071069;28;20427;-61
2023/03/29 04:17:42;;;;;;;3.88;2.83;;;3.90;71.80;;;;;;5069180;28;20482;-61
2023/03/29 04:20:10;;;;;;;2.70;2.50;;;3.90;71.60;;;;;;5067924;28;20047;-62
2023/03/29 04:22:36;;;;;;;2.90;2.70;;;3.90;71.50;;;;;;5071014;28;20034;-62
2023/03/29 04:25:02;;;;;;;3.17;2.80;;;3.90;71.30;;;;;;5070933;28;20684;-62
2023/03/29 04:27:27;;;;;;;3.17;2.70;;;3.90;71.20;;;;;;5064471;28;20025;-61
2023/03/29 04:29:53;;;;;;;2.83;2.63;;;3.90;71.20;;;;;;5075216;28;20178;-61
2023/03/29 04:32:19;;;;;;;2.75;2.55;;;3.90;71.30;;;;;;5069752;28;20028;-61
2023/03/29 04:34:44;;;;;;;3.25;2.58;;;3.90;70.90;;;;;;5071289;28;20025;-62
2023/03/29 04:37:10;;;;;;;2.97;2.70;;;3.90;71.10;;;;;;5071158;28;20025;-59
2023/03/29 04:39:36;;;;;;;3.28;2.70;;;4.00;71.00;;;;;;5071357;28;20063;-58
2023/03/29 04:42:04;;;;;;;2.63;2.42;;;4.00;70.80;;;;;;5071389;28;20367;-63
2023/03/29 04:44:32;;;;;;;2.92;2.65;;;4.00;70.80;;;;;;5071294;28;20363;-64
2023/03/29 04:46:58;;;;;;;3.03;2.70;;;4.00;70.90;;;;;;5073072;28;20020;-60
2023/03/29 04:49:24;;;;;;;3.10;2.80;;;4.00;70.60;;;;;;5066069;28;20054;-63
2023/03/29 04:51:50;;;;;;;2.70;2.50;;;4.00;70.70;;;;;;5069529;28;20021;-62
2023/03/29 04:54:16;;;;;;;4.15;2.75;;;4.00;70.60;;;;;;5070155;28;20059;-62
2023/03/29 04:56:42;;;;;;;2.72;2.53;;;4.00;70.50;;;;;;5073281;28;20128;-60
2023/03/29 04:59:08;;;;;;;2.75;2.55;;;4.00;70.50;;;;;;5065595;28;20036;-62
2023/03/29 05:01:34;;;;;;;2.90;2.65;;;4.00;70.30;;;;;;5069511;28;20016;-62
2023/03/29 05:03:59;;;;;;;3.25;2.88;;;4.10;70.50;;;;;;5066812;28;20528;-61
2023/03/29 05:06:25;;;;;;;3.13;2.70;;;4.00;70.40;;;;;;5069271;28;20133;-62
2023/03/29 05:08:51;;;;;;;4.80;3.10;;;4.00;70.30;;;;;;5071165;28;20044;-62
2023/03/29 05:11:18;;;;;;;3.42;2.88;;;4.00;70.30;;;;;;5071061;28;20037;-62
2023/03/29 05:13:44;;;;;;;3.08;2.78;;;4.00;70.10;;;;;;5075293;28;20447;-61
2023/03/29 05:16:09;;;;;;;3.10;2.67;;;4.00;70.00;;;;;;5074526;28;20086;-61
2023/03/29 05:18:35;;;;;;;3.40;3.00;;;4.00;70.20;;;;;;5071440;28;20891;-61
2023/03/29 05:21:01;;;;;;;3.67;3.20;;;4.00;70.10;;;;;;5057940;28;20032;-61
2023/03/29 05:23:27;;;;;;;3.45;3.00;;;4.00;69.80;;;;;;5070230;28;20115;-62
2023/03/29 05:25:53;;;;;;;4.78;2.85;;;4.00;69.90;;;;;;5068207;28;20351;-62
2023/03/29 05:28:20;;;;;;;4.10;3.00;;;4.00;69.80;;;;;;5064343;28;20025;-62
2023/03/29 05:30:47;;;;;;;3.05;2.75;;;4.00;69.70;;;;;;5070504;28;20028;-57
2023/03/29 05:33:12;;;;;;;3.47;2.90;;;3.90;69.70;;;;;;5070253;28;20081;-53
2023/03/29 05:35:38;;;;;;;3.42;2.60;;;3.90;69.80;;;;;;5070701;28;20375;-54
2023/03/29 05:38:04;;;;;;;2.78;2.55;;;3.90;69.80;;;;;;5074110;28;21519;-54
2023/03/29 05:40:30;;;;;;;3.80;3.03;;;3.90;70.00;;;;;;5078771;28;20358;-55
2023/03/29 05:42:58;;;;;;;4.20;2.90;;;4.00;70.10;;;;;;5070533;28;20043;-57
2023/03/29 05:45:27;;;;;;;3.08;2.67;;;4.00;70.10;;;;;;5063502;28;20480;-56
2023/03/29 05:47:52;;;;;;;2.95;2.72;;;4.00;69.80;;;;;;5058323;28;20171;-54
2023/03/29 05:50:18;;;;;;;3.20;2.75;;;3.90;69.60;;;;;;5046373;28;20041;-55
2023/03/29 05:52:44;;;;;;;3.67;2.80;;;3.90;69.70;;;;;;5069520;28;20032;-55
2023/03/29 05:55:10;;;;;;;2.85;2.60;;;3.90;69.70;;;;;;5066114;28;20096;-55
2023/03/29 05:57:37;;;;;;;3.10;2.80;;;3.90;69.80;;;;;;5070214;28;20436;-54
2023/03/29 06:00:15;;;;;;;3.38;3.08;;;3.90;69.90;;;;;;5060181;28;20051;-54
2023/03/29 06:02:41;;;;;;;4.40;2.90;;;3.90;70.20;;;;;;5025804;28;20743;-55
2023/03/29 06:05:07;;;;;;;3.03;2.72;;;3.90;70.30;;;;;;5047527;28;20037;-56
2023/03/29 06:07:33;;;;;;;3.60;2.97;;;3.90;70.20;;;;;;5052004;28;20091;-58
2023/03/29 06:09:59;;;;;;;3.05;2.47;;;4.00;70.20;;;;;;5038287;28;20052;-54
2023/03/29 06:12:25;;;;;;;3.33;3.03;;;4.00;70.20;;;;;;5058406;28;20123;-53
2023/03/29 06:14:50;;;;;;;3.25;2.80;;;3.90;70.10;;;;;;5057485;28;20951;-58
2023/03/29 06:17:16;;;;;;;3.03;2.83;;;3.90;69.90;;;;;;5050309;28;20040;-50
2023/03/29 06:19:43;;;;;;;3.72;3.15;;;3.90;70.20;;;;;;5047122;28;20071;-51
2023/03/29 06:22:09;;;;;;;3.40;3.10;;;3.80;70.20;;;;;;5049562;28;20467;-55
2023/03/29 06:24:35;;;;;;;6.18;3.05;;;3.80;70.30;;;;;;5020788;28;20095;-49
2023/03/29 06:27:00;;;;;;;3.22;2.88;;;3.80;70.40;;;;;;5021535;28;20323;-54
2023/03/29 06:29:26;;;;;;;3.30;3.00;;;3.80;70.40;;;;;;5021797;28;20045;-51
2023/03/29 06:31:53;;;;;;;3.67;2.83;;;3.70;70.50;;;;;;5019452;28;20613;-57
2023/03/29 06:34:20;;;;;;;3.13;2.75;;;3.70;70.60;;;;;;5020322;28;20052;-58
2023/03/29 06:36:46;;;;;;;3.17;2.70;;;3.70;70.60;;;;;;5019459;28;20110;-57
2023/03/29 06:39:12;;;;;;;3.78;2.78;;;3.70;70.90;;;;;;5014724;28;20033;-57
2023/03/29 06:41:38;;;;;;;2.90;2.70;;;3.80;70.80;;;;;;5003320;28;20417;-55
2023/03/29 06:44:04;;;;;;;3.20;2.90;;;3.70;71.30;;;;;;5003247;28;20026;-55
2023/03/29 06:46:30;;;;;;;4.13;3.08;;;3.70;70.70;;;;;;5018049;28;20032;-58
2023/03/29 06:48:56;;;;;;;3.92;3.00;;;3.70;70.60;;;;;;5015032;28;20045;-55
2023/03/29 06:51:21;;;;;;;2.83;2.63;;;3.60;70.70;;;;;;5003670;28;20048;-55
2023/03/29 06:53:47;;;;;;;3.05;2.75;;;3.60;70.90;;;;;;5009456;28;20110;-56
2023/03/29 06:56:13;;;;;;;3.30;3.00;;;3.60;71.00;;;;;;5008338;28;20036;-59
2023/03/29 06:58:39;;;;;;;3.35;2.78;;;3.60;70.70;;;;;;5011491;28;20022;-51
2023/03/29 07:01:05;;;;;;;2.88;2.67;;;3.60;70.70;;;;;;4997635;28;20026;-57
2023/03/29 07:03:34;;;;;;;2.92;2.72;;;3.50;70.70;;;;;;5008848;28;20065;-59
2023/03/29 07:06:08;;;;;;;5.15;2.97;;;3.60;70.90;;;;;;5008976;28;20042;-58
2023/03/29 07:08:42;;;;;;;3.08;2.78;;;3.60;70.80;;;;;;5001769;28;20149;-50
2023/03/29 07:11:12;;;;;;;2.80;2.60;;;3.60;70.80;;;;;;5009456;28;20040;-53
2023/03/29 07:13:42;;;;;;;3.22;2.92;;;3.60;70.70;;;;;;5007632;28;20091;-52
2023/03/29 07:16:11;;;;;;;3.15;2.85;;;3.60;70.40;;;;;;5012289;28;20160;-54
2023/03/29 07:18:39;;;;;;;3.25;2.95;;;3.60;70.40;;;;;;5004785;28;20751;-58
2023/03/29 07:21:06;;;;;;;3.92;3.08;;;3.60;70.30;;;;;;5006499;28;20088;-52
2023/03/29 07:23:31;;;;;;;3.50;3.20;;;3.60;70.10;;;;;;5017002;28;20131;-53
2023/03/29 07:25:57;;;;;;;4.88;3.10;;;3.50;70.20;;;;;;5047763;28;20066;-56
2023/03/29 07:28:23;;;;;;;3.63;3.15;;;3.50;70.10;;;;;;5026403;28;20105;-50
2023/03/29 07:30:48;;;;;;;8.02;3.13;;;3.60;70.30;;;;;;5039515;28;20028;-54
2023/03/29 07:33:14;;;;;;;3.03;2.65;;;3.60;70.00;;;;;;5035095;28;20039;-52
2023/03/29 07:35:42;;;;;;;3.50;3.08;;;3.60;69.70;;;;;;5040542;28;20493;-55
2023/03/29 07:38:08;;;;;;;3.72;3.30;;;3.60;69.80;;;;;;5034209;28;20024;-52
2023/03/29 07:40:34;;;;;;;3.55;3.00;;;3.60;69.80;;;;;;5031440;28;20542;-59
2023/03/29 07:43:01;;;;;;;2.88;2.63;;;3.60;69.60;;;;;;5035910;28;20036;-48
2023/03/29 07:45:28;;;;;;;3.45;3.00;;;3.60;69.30;;;;;;5043654;28;20059;-54
2023/03/29 07:47:58;;;;;;;4.55;2.70;;;3.60;69.10;;;;;;5034588;28;20031;-56
2023/03/29 07:50:24;;;;;;;3.00;2.72;;;3.60;69.10;;;;;;5046601;28;20521;-55
2023/03/29 07:52:50;;;;;;;3.40;3.05;;;3.60;68.90;;;;;;5036790;28;20037;-54
2023/03/29 07:55:16;;;;;;;3.10;2.80;;;3.60;68.80;;;;;;5038850;28;20033;-54
2023/03/29 07:57:43;;;;;;;3.20;2.90;;;3.60;68.70;;;;;;5037706;28;20063;-53
2023/03/29 08:00:11;;;;;;;3.67;2.97;;;3.70;68.70;;;;;;5042680;28;20142;-58
2023/03/29 08:02:38;;;;;;;3.15;2.90;;;3.70;68.40;;;;;;5033045;28;20077;-57
2023/03/29 08:05:03;;;;;;;3.67;3.00;;;3.70;68.20;;;;;;5041397;28;20025;-56
2023/03/29 08:07:30;;;;;;;3.22;2.92;;;3.70;68.00;;;;;;5049417;28;20024;-56
2023/03/29 08:09:56;;;;;;;2.95;2.75;;;3.70;67.70;;;;;;5039976;28;20036;-55
2023/03/29 08:12:21;;;;;;;3.95;3.30;;;3.70;67.60;;;;;;5027856;28;20047;-54
2023/03/29 08:14:47;;;;;;;5.00;3.40;;;3.70;67.50;;;;;;5033086;28;20144;-53
2023/03/29 08:17:12;;;;;;;3.63;3.20;;;3.70;67.50;;;;;;5037626;28;20033;-55
2023/03/29 08:19:38;;;;;;;4.32;2.90;;;3.70;67.40;;;;;;5034820;28;20033;-59
2023/03/29 08:22:04;;;;;;;3.47;3.15;;;3.70;67.50;;;;;;5038863;28;20040;-60
2023/03/29 08:24:30;;;;;;;3.15;2.85;;;3.70;67.50;;;;;;5037149;28;20150;-57
2023/03/29 08:26:55;;;;;;;3.35;2.75;;;3.70;67.60;;;;;;5044032;28;20040;-57
2023/03/29 08:29:21;;;;;;;5.50;3.47;;;3.70;67.30;;;;;;5030449;28;20136;-57
2023/03/29 08:31:48;;;;;;;5.22;2.90;;;3.80;67.50;;;;;;5029358;28;20040;-57
2023/03/29 08:34:13;;;;;;;3.05;2.80;;;3.80;67.60;;;;;;5024684;28;20024;-52
2023/03/29 08:36:39;;;;;;;3.30;3.00;;;3.80;67.40;;;;;;5039096;28;20035;-51
2023/03/29 08:39:05;;;;;;;3.08;2.78;;;3.90;67.40;;;;;;5037081;28;20033;-58
2023/03/29 08:41:36;;;;;;;2.92;2.60;;;3.90;67.20;;;;;;5045287;28;20028;-57
2023/03/29 08:44:10;;;;;;;4.60;2.88;;;3.90;67.30;;;;;;5035156;28;20130;-60
2023/03/29 08:46:59;;;;;;;3.47;3.10;;;3.90;66.90;;;;;;5041249;28;20112;-55
2023/03/29 08:49:25;;;;;;;6.85;3.10;;;4.00;66.70;;;;;;5043187;28;20050;-57
2023/03/29 08:51:58;;;;;;;2.90;2.70;;;3.90;66.70;;;;;;5044974;28;20430;-52
2023/03/29 08:54:28;;;;;;;3.45;3.15;;;4.00;66.70;;;;;;5031701;28;20112;-50
2023/03/29 08:57:01;;;;;;;3.08;2.63;;;4.00;66.50;;;;;;5038504;28;20043;-57
2023/03/29 08:59:30;;;;;;;3.60;3.30;;;4.00;66.60;;;;;;5021241;28;20043;-56
2023/03/29 09:02:11;;;;;;;3.22;2.92;;;4.00;66.40;;;;;;5024488;28;20056;-58
2023/03/29 09:04:41;;;;;;;3.15;2.90;;;4.00;66.60;;;;;;5034530;28;20082;-55
2023/03/29 09:07:10;;;;;;;3.95;3.17;;;4.00;66.70;;;;;;5038720;28;20143;-55
2023/03/29 09:09:37;;;;;;;4.57;3.22;;;4.00;67.60;;;;;;5038987;28;20083;-58
2023/03/29 09:12:21;;;;;;;3.45;3.10;;;4.10;66.70;;;;;;5034358;28;20043;-50
2023/03/29 09:15:18;;;;;;;3.63;3.05;;;4.10;66.50;;;;;;5036603;28;20033;-53
2023/03/29 09:17:53;;;;;;;3.92;3.15;;;4.10;66.40;;;;;;5041872;28;20032;-53
2023/03/29 09:20:37;;;;;;;3.20;2.90;;;4.10;66.30;;;;;;5032399;28;20029;-54
2023/03/29 09:23:29;;;;;;;3.67;2.88;;;4.10;66.30;;;;;;5049081;28;20057;-54
2023/03/29 09:26:14;;;;;;;3.38;2.90;;;4.10;66.70;;;;;;5035814;28;20060;-52
2023/03/29 09:29:06;;;;;;;3.58;3.00;;;4.20;66.50;;;;;;5046755;28;20063;-51
2023/03/29 09:31:40;;;;;;;3.53;3.15;;;4.20;66.30;;;;;;5040900;28;20036;-51
2023/03/29 09:34:15;;;;;;;3.35;3.05;;;4.20;66.20;;;;;;5053128;28;20029;-55
2023/03/29 09:36:58;;;;;;;3.63;3.13;;;4.10;65.80;;;;;;5049693;28;20032;-52
2023/03/29 09:39:27;;;;;;;4.53;3.00;;;4.10;65.90;;;;;;5048780;28;20098;-55
2023/03/29 09:41:55;;;;;;;4.50;3.33;;;4.10;66.00;;;;;;5042952;28;20087;-51
2023/03/29 09:44:30;;;;;;;3.47;3.00;;;4.10;66.30;;;;;;5044537;28;20040;-57
2023/03/29 09:47:11;;;;;;;3.42;3.13;;;4.20;66.30;;;;;;5039608;28;20033;-57
2023/03/29 09:49:40;;;;;;;3.42;3.13;;;4.20;66.20;;;;;;5042873;28;20044;-54
2023/03/29 09:52:12;;;;;;;3.40;3.10;;;4.30;66.20;;;;;;5056083;28;20540;-56
2023/03/29 09:54:37;;;;;;;4.10;3.30;;;4.30;66.20;;;;;;5043540;28;20820;-53
2023/03/29 09:57:03;;;;;;;4.20;3.20;;;4.30;66.00;;;;;;5047622;28;20044;-54
2023/03/29 09:59:29;;;;;;;3.80;3.13;;;4.30;65.60;;;;;;5046887;28;20124;-56
2023/03/29 10:02:09;;;;;;;4.32;3.70;;;4.30;65.70;;;;;;5049022;28;20129;-55
2023/03/29 10:04:35;;;;;;;3.70;3.40;;;4.30;65.50;;;;;;5043023;28;20037;-60
2023/03/29 10:07:02;;;;;;;3.33;3.03;;;4.30;65.50;;;;;;5041462;28;20042;-54
2023/03/29 10:09:29;;;;;;;4.70;3.42;;;4.30;65.70;;;;;;5031140;28;20036;-59
2023/03/29 10:12:01;;;;;;;3.30;3.00;;;4.30;65.90;;;;;;5034348;28;20036;-57
2023/03/29 10:14:37;;;;;;;3.20;2.90;;;4.30;65.70;;;;;;5046891;28;20080;-57
2023/03/29 10:17:12;;;;;;;3.10;2.80;;;4.30;65.70;;;;;;5047193;28;20041;-57
2023/03/29 10:19:48;;;;;;;4.40;3.05;;;4.30;65.70;;;;;;5055486;28;20032;-57
2023/03/29 10:22:39;;;;;;;3.30;3.00;;;4.30;65.50;;;;;;5052309;28;20091;-56
2023/03/29 10:25:12;;;;;;;4.03;3.15;;;4.30;65.70;;;;;;5048219;28;20052;-57
2023/03/29 10:27:41;;;;;;;4.18;3.20;;;4.30;65.90;;;;;;5055270;28;20025;-57
2023/03/29 10:30:11;;;;;;;3.30;3.00;;;4.30;65.80;;;;;;5053636;28;21097;-58
2023/03/29 10:32:38;;;;;;;3.70;3.15;;;4.40;65.80;;;;;;5040286;28;20032;-58
2023/03/29 10:35:16;;;;;;;3.20;2.90;;;4.40;65.50;;;;;;5051736;28;20033;-59
2023/03/29 10:37:43;;;;;;;3.30;3.00;;;4.40;65.50;;;;;;5053799;28;20044;-57
2023/03/29 10:40:20;;;;;;;3.70;3.33;;;4.40;65.60;;;;;;5049080;28;20028;-57
2023/03/29 10:42:50;;;;;;;3.33;3.03;;;4.50;65.90;;;;;;5058594;28;20090;-56
2023/03/29 10:45:36;;;;;;;3.38;3.08;;;4.50;65.60;;;;;;5053138;28;20039;-54
2023/03/29 10:48:03;;;;;;;3.47;3.17;;;4.50;65.60;;;;;;5058174;28;20033;-55
2023/03/29 10:50:36;;;;;;;4.25;3.15;;;4.50;65.60;;;;;;5053183;28;20502;-59
2023/03/29 10:53:11;;;;;;;3.58;3.00;;;4.60;65.70;;;;;;5050366;28;20040;-56
2023/03/29 10:55:57;;;;;;;3.63;3.20;;;4.60;65.30;;;;;;5046212;28;20024;-54
2023/03/29 10:59:00;;;;;;;3.83;3.20;;;4.60;65.40;;;;;;5056793;28;20031;-54
2023/03/29 11:01:50;;;;;;;3.90;3.50;;;4.60;65.50;;;;;;5040935;28;20028;-59
2023/03/29 11:04:32;;;;;;;3.30;3.00;;;4.60;65.60;;;;;;5047364;28;20052;-56
2023/03/29 11:07:16;;;;;;;3.85;3.40;;;4.70;65.60;;;;;;5049123;28;20032;-56
2023/03/29 11:10:19;;;;;;;3.40;3.10;;;4.70;65.40;;;;;;5055219;28;20037;-52
2023/03/29 11:12:52;;;;;;;4.25;3.25;;;4.70;65.30;;;;;;5056584;28;20025;-54
2023/03/29 11:15:42;;;;;;;5.85;3.60;;;4.70;65.30;;;;;;5045748;28;20024;-54
2023/03/29 11:18:23;;;;;;;3.55;3.03;;;4.80;65.40;;;;;;5043409;28;20778;-57
2023/03/29 11:20:54;;;;;;;4.60;3.40;;;4.80;65.10;;;;;;5041674;28;20032;-54
2023/03/29 11:23:45;;;;;;;3.45;3.15;;;4.80;65.20;;;;;;5043324;28;20289;-55
2023/03/29 11:26:43;;;;;;;3.40;3.10;;;4.80;65.30;;;;;;5049070;28;20945;-56
2023/03/29 11:29:27;;;;;;;3.72;3.35;;;4.80;66.00;;;;;;5041658;28;20317;-56
2023/03/29 11:32:11;;;;;;;3.10;2.85;;;4.80;65.30;;;;;;5040649;28;20032;-54
2023/03/29 11:34:49;;;;;;;4.65;3.20;;;4.70;65.00;;;;;;5042097;28;20584;-55
2023/03/29 11:37:25;;;;;;;3.70;3.40;;;4.70;65.30;;;;;;5042319;28;20093;-56
2023/03/29 11:40:06;;;;;;;3.35;3.05;;;4.70;65.30;;;;;;5043316;28;20228;-59
2023/03/29 11:42:39;;;;;;;3.30;3.00;;;4.70;65.10;;;;;;5040233;28;20740;-53
2023/03/29 11:45:13;;;;;;;4.30;3.35;;;4.70;64.80;;;;;;5042271;28;20804;-56
2023/03/29 11:47:41;;;;;;;3.38;3.08;;;4.60;64.70;;;;;;5054042;28;20086;-52
2023/03/29 11:50:28;;;;;;;3.65;3.15;;;4.60;65.00;;;;;;5044523;28;20381;-57
2023/03/29 11:53:38;;;;;;;3.20;2.90;;;4.60;64.70;;;;;;5045083;28;20033;-56
2023/03/29 11:56:14;;;;;;;3.13;2.83;;;4.60;65.00;;;;;;5039859;28;20032;-58
2023/03/29 11:58:47;;;;;;;3.08;2.85;;;4.70;65.30;;;;;;5039625;28;20020;-55
2023/03/29 12:01:19;;;;;;;5.85;3.85;;;4.70;65.20;;;;;;5038139;28;22067;-52
2023/03/29 12:03:46;;;;;;;3.30;3.00;;;4.70;65.30;;;;;;5053070;28;20059;-53
2023/03/29 12:06:26;;;;;;;3.85;3.20;;;4.80;65.20;;;;;;5044884;28;20368;-53
2023/03/29 12:09:00;;;;;;;3.05;2.75;;;4.80;65.00;;;;;;5044879;28;20042;-56
2023/03/29 12:11:51;;;;;;;2.92;2.72;;;4.80;65.00;;;;;;5037801;28;20028;-55
2023/03/29 12:14:20;;;;;;;;;;;4.80;64.80;;;;;;5045906;28;20727;-55
2023/03/29 12:17:00;;;;;;;3.83;3.42;;;4.80;64.60;;;;;;5040575;28;19912;-58
2023/03/29 12:19:33;;;;;;;4.28;3.60;;;4.80;65.20;;;;;;5050763;28;20032;-56
2023/03/29 12:22:00;;;;;;;4.10;3.25;;;4.90;65.30;;;;;;5036902;28;20114;-57
2023/03/29 12:24:29;;;;;;;3.55;3.20;;;4.90;65.30;;;;;;5047482;28;20051;-56
2023/03/29 12:27:19;;;;;;;3.85;3.30;;;5.00;65.30;;;;;;5048012;28;20587;-50
2023/03/29 12:30:03;;;;;;;3.40;3.08;;;5.00;65.30;;;;;;5043693;28;20036;-55
2023/03/29 12:32:50;;;;;;;3.88;3.20;;;5.10;65.00;;;;;;5041493;28;20044;-60
2023/03/29 12:35:44;;;;;;;3.58;3.17;;;5.10;64.70;;;;;;5051582;28;20037;-53
2023/03/29 12:38:20;;;;;;;3.60;3.03;;;5.10;64.70;;;;;;5040638;28;21018;-59
2023/03/29 12:40:53;;;;;;;3.63;3.10;;;5.10;64.90;;;;;;5036334;28;20108;-55
2023/03/29 12:43:42;;;;;;;3.15;2.75;;;5.10;64.90;;;;;;5047478;28;20021;-55
2023/03/29 12:46:17;;;;;;;2.95;2.72;;;5.10;64.70;;;;;;5043340;28;20056;-59
2023/03/29 12:48:46;;;;;;;3.42;3.05;;;5.10;64.50;;;;;;5059936;28;20035;-54
2023/03/29 12:51:18;;;;;;;3.53;3.15;;;5.10;64.90;;;;;;5042747;28;20036;-56
2023/03/29 12:53:47;;;;;;;3.05;2.78;;;5.10;64.80;;;;;;5037699;28;20360;-58
2023/03/29 12:56:16;;;;;;;3.83;3.20;;;5.10;64.70;;;;;;5052809;28;20028;-51
2023/03/29 12:58:58;;;;;;;3.58;3.08;;;5.20;64.90;;;;;;5037870;28;20402;-57
2023/03/29 13:01:29;;;;;;;3.50;3.20;;;5.20;64.90;;;;;;5037937;28;20151;-59
2023/03/29 13:04:18;;;;;;;3.15;2.88;;;5.20;64.70;;;;;;5044114;28;20035;-49
2023/03/29 13:07:02;;;;;;;3.58;3.15;;;5.20;64.50;;;;;;5052978;28;20024;-49
2023/03/29 13:09:45;;;;;;;4.72;3.20;;;5.20;64.50;;;;;;5049658;28;20159;-55
2023/03/29 13:12:14;;;;;;;4.18;3.20;;;5.20;64.80;;;;;;5041885;28;20741;-61
2023/03/29 13:14:48;;;;;;;3.92;3.55;;;5.20;64.60;;;;;;5044718;28;20059;-57
2023/03/29 13:17:53;;;;;;;3.95;3.30;;;5.20;65.20;;;;;;5051334;28;20025;-52
2023/03/29 13:20:37;;;;;;;5.72;3.40;;;5.20;64.40;;;;;;5031759;28;20055;-53